Time;durP1;ratioP1;P1;durP2;ratioP2;P2;SDS_P1;SDS_P2;PMS_P1;PMS_P2;Temp;Humidity;BMP_temperature;BMP_pressure;BME280_temperature;BME280_humidity;BME280_pressure;Samples;Min_cycle;Max_cycle;Signal;HPM_P1;HPM_P2
2021/05/19 00:00:10;;;;;;;10.45;5.35;;;;;;;;;;5073438;28;20033;-69
2021/05/19 00:02:36;;;;;;;14.27;7.57;;;;;;;;;;5074309;28;20580;-69
2021/05/19 00:05:03;;;;;;;12.60;6.70;;;;;;;;;;5073816;28;20044;-69
2021/05/19 00:07:29;;;;;;;12.00;6.55;;;;;;;;;;5072931;28;20028;-69
2021/05/19 00:09:55;;;;;;;11.05;6.53;;;;;;;;;;5073060;28;20028;-69
2021/05/19 00:12:21;;;;;;;9.38;5.30;;;;;;;;;;5072780;28;20024;-69
2021/05/19 00:14:47;;;;;;;11.88;6.30;;;;;;;;;;5061745;28;20525;-69
2021/05/19 00:17:13;;;;;;;14.25;6.80;;;;;;;;;;5053669;28;20093;-69
2021/05/19 00:19:39;;;;;;;17.15;8.75;;;;;;;;;;5053750;28;20025;-69
2021/05/19 00:22:05;;;;;;;16.73;9.18;;;;;;;;;;5052362;28;20154;-68
2021/05/19 00:24:31;;;;;;;12.10;7.20;;;;;;;;;;5050527;28;20036;-68
2021/05/19 00:26:57;;;;;;;21.88;7.80;;;;;;;;;;5053328;28;20029;-69
2021/05/19 00:29:24;;;;;;;22.13;6.72;;;;;;;;;;5058311;28;20017;-69
2021/05/19 00:31:50;;;;;;;36.33;7.68;;;;;;;;;;5052975;28;20017;-69
2021/05/19 00:34:16;;;;;;;104.35;10.50;;;;;;;;;;5067368;28;20100;-69
2021/05/19 00:36:42;;;;;;;54.38;7.28;;;;;;;;;;5072700;28;20020;-69
2021/05/19 00:39:09;;;;;;;106.15;11.35;;;;;;;;;;5072561;28;20107;-69
2021/05/19 00:41:35;;;;;;;238.52;16.58;;;;;;;;;;5072346;28;20060;-68
2021/05/19 00:44:02;;;;;;;254.95;21.45;;;;;;;;;;5071277;28;20032;-69
2021/05/19 00:46:28;;;;;;;204.63;16.80;;;;;;;;;;5071867;28;20066;-68
2021/05/19 00:48:55;;;;;;;97.97;15.00;;;;;;;;;;5073110;28;20032;-69
2021/05/19 00:51:21;;;;;;;204.05;17.25;;;;;;;;;;5072985;28;20328;-69
2021/05/19 00:53:47;;;;;;;196.98;14.50;;;;;;;;;;5072987;28;20032;-69
2021/05/19 00:56:13;;;;;;;205.23;14.18;;;;;;;;;;5072983;28;20069;-69
2021/05/19 00:58:39;;;;;;;246.25;15.65;;;;;;;;;;5071577;28;20032;-69
2021/05/19 01:01:05;;;;;;;143.63;11.13;;;;;;;;;;5071525;28;20033;-68
2021/05/19 01:03:31;;;;;;;156.55;12.75;;;;;;;;;;5072742;28;20040;-68
2021/05/19 01:06:03;;;;;;;90.32;10.68;;;;;;;;;;5072699;28;20068;-69
2021/05/19 01:11:17;;;;;;;58.97;10.13;;;;;;;;;;5072727;28;20032;-69
2021/05/19 01:13:46;;;;;;;62.85;15.48;;;;;;;;;;5071225;28;20026;-69
2021/05/19 01:16:12;;;;;;;38.83;9.52;;;;;;;;;;5072772;28;20414;-69
2021/05/19 01:18:41;;;;;;;27.83;8.43;;;;;;;;;;5072531;28;20051;-69
2021/05/19 01:21:08;;;;;;;15.05;7.15;;;;;;;;;;5071753;28;20024;-69
2021/05/19 01:23:34;;;;;;;17.42;6.93;;;;;;;;;;5083570;28;20032;-68
2021/05/19 01:26:00;;;;;;;11.05;6.57;;;;;;;;;;5092618;28;20032;-69
2021/05/19 01:28:27;;;;;;;13.05;6.38;;;;;;;;;;5091818;28;20032;-70
2021/05/19 01:30:53;;;;;;;9.23;5.72;;;;;;;;;;5092778;28;20024;-70
2021/05/19 01:33:19;;;;;;;12.20;6.63;;;;;;;;;;5084982;28;20042;-70
2021/05/19 01:35:45;;;;;;;16.20;8.57;;;;;;;;;;5071068;28;20085;-68
2021/05/19 01:38:13;;;;;;;13.35;7.35;;;;;;;;;;5072404;28;20056;-70
2021/05/19 01:40:39;;;;;;;25.80;12.57;;;;;;;;;;5072241;28;20040;-70
2021/05/19 01:43:05;;;;;;;19.77;8.50;;;;;;;;;;5071844;28;20354;-70
2021/05/19 01:45:31;;;;;;;42.58;9.20;;;;;;;;;;5071452;28;20889;-71
2021/05/19 01:47:57;;;;;;;70.93;10.82;;;;;;;;;;5071891;28;20377;-70
2021/05/19 01:50:24;;;;;;;34.03;9.20;;;;;;;;;;5071609;28;20032;-70
2021/05/19 01:52:51;;;;;;;27.85;11.43;;;;;;;;;;5071653;28;20023;-70
2021/05/19 01:55:17;;;;;;;24.08;9.93;;;;;;;;;;5071729;28;20142;-70
2021/05/19 01:57:44;;;;;;;33.88;8.48;;;;;;;;;;5071448;28;20039;-70
2021/05/19 02:00:10;;;;;;;60.65;9.88;;;;;;;;;;5071544;28;20047;-70
2021/05/19 02:02:36;;;;;;;72.25;11.18;;;;;;;;;;5071494;28;20048;-70
2021/05/19 02:05:03;;;;;;;117.18;11.38;;;;;;;;;;5070539;28;20074;-70
2021/05/19 02:07:29;;;;;;;135.13;11.93;;;;;;;;;;5071062;28;20031;-70
2021/05/19 02:09:55;;;;;;;125.15;11.20;;;;;;;;;;5071106;28;20024;-70
2021/05/19 02:12:21;;;;;;;107.50;11.05;;;;;;;;;;5071699;28;20052;-70
2021/05/19 02:14:47;;;;;;;374.23;16.67;;;;;;;;;;5066163;28;20474;-70
2021/05/19 02:17:13;;;;;;;169.65;11.05;;;;;;;;;;5050276;28;20043;-70
2021/05/19 02:19:39;;;;;;;241.45;13.90;;;;;;;;;;5071650;28;20021;-70
2021/05/19 02:22:05;;;;;;;206.73;13.00;;;;;;;;;;5070883;28;20465;-70
2021/05/19 02:24:31;;;;;;;200.20;13.80;;;;;;;;;;5088768;28;20028;-70
2021/05/19 02:26:57;;;;;;;109.82;12.65;;;;;;;;;;5091525;28;20051;-70
2021/05/19 02:29:24;;;;;;;104.68;10.90;;;;;;;;;;5090762;28;20024;-70
2021/05/19 02:31:50;;;;;;;116.75;9.65;;;;;;;;;;5076242;28;20028;-70
2021/05/19 02:34:16;;;;;;;132.70;11.38;;;;;;;;;;5070812;28;20024;-70
2021/05/19 02:36:42;;;;;;;201.55;13.95;;;;;;;;;;5070882;28;20029;-70
2021/05/19 02:39:09;;;;;;;145.02;12.07;;;;;;;;;;5057218;28;20036;-69
2021/05/19 02:41:35;;;;;;;104.30;10.65;;;;;;;;;;5049422;28;20163;-70
2021/05/19 02:44:01;;;;;;;76.90;10.07;;;;;;;;;;5049706;28;20112;-70
2021/05/19 02:46:27;;;;;;;80.15;10.32;;;;;;;;;;5050271;28;20029;-70
2021/05/19 02:49:01;;;;;;;83.78;9.98;;;;;;;;;;5065473;28;20028;-69
2021/05/19 02:51:27;;;;;;;78.53;8.82;;;;;;;;;;5070829;28;20017;-70
2021/05/19 02:53:53;;;;;;;50.03;7.40;;;;;;;;;;5069228;28;20359;-70
2021/05/19 02:56:19;;;;;;;50.30;7.60;;;;;;;;;;5071066;28;20042;-70
2021/05/19 02:58:45;;;;;;;36.15;6.35;;;;;;;;;;5070012;28;20100;-70
2021/05/19 03:01:11;;;;;;;19.00;5.75;;;;;;;;;;5070584;28;20028;-69
2021/05/19 03:03:37;;;;;;;42.83;7.40;;;;;;;;;;5069621;28;20043;-69
2021/05/19 03:06:03;;;;;;;33.30;7.13;;;;;;;;;;5068972;28;20032;-70
2021/05/19 03:08:29;;;;;;;62.28;8.07;;;;;;;;;;5070519;28;20028;-70
2021/05/19 03:10:55;;;;;;;98.45;9.30;;;;;;;;;;5070671;28;20390;-70
2021/05/19 03:13:21;;;;;;;112.03;10.15;;;;;;;;;;5068977;28;20025;-69
2021/05/19 03:15:47;;;;;;;138.63;11.23;;;;;;;;;;5070834;28;20029;-69
2021/05/19 03:18:13;;;;;;;72.82;9.50;;;;;;;;;;5070616;28;20021;-70
2021/05/19 03:20:39;;;;;;;61.28;8.20;;;;;;;;;;5070035;28;20046;-69
2021/05/19 03:23:05;;;;;;;51.63;8.30;;;;;;;;;;5077927;28;20035;-70
2021/05/19 03:25:32;;;;;;;89.88;8.80;;;;;;;;;;5090879;28;20031;-69
2021/05/19 03:27:58;;;;;;;86.97;8.60;;;;;;;;;;5090217;28;20024;-70
2021/05/19 03:30:24;;;;;;;45.20;8.35;;;;;;;;;;5090873;28;20035;-70
2021/05/19 03:32:50;;;;;;;107.03;9.23;;;;;;;;;;5086781;28;20025;-69
2021/05/19 03:35:16;;;;;;;177.35;11.82;;;;;;;;;;5069173;28;20115;-70
2021/05/19 03:37:42;;;;;;;132.43;11.27;;;;;;;;;;5070218;28;20016;-70
2021/05/19 03:40:09;;;;;;;259.35;13.93;;;;;;;;;;5069117;28;20025;-69
2021/05/19 03:42:35;;;;;;;145.65;10.93;;;;;;;;;;5070198;28;20036;-69
2021/05/19 03:45:02;;;;;;;107.55;9.07;;;;;;;;;;5069164;28;20020;-69
2021/05/19 03:47:28;;;;;;;123.28;10.90;;;;;;;;;;5070558;28;20417;-70
2021/05/19 03:49:54;;;;;;;144.93;12.55;;;;;;;;;;5069869;28;20056;-69
2021/05/19 03:52:20;;;;;;;250.25;14.77;;;;;;;;;;5070651;28;20090;-69
2021/05/19 03:54:46;;;;;;;192.32;12.90;;;;;;;;;;5070017;28;20035;-70
2021/05/19 03:57:12;;;;;;;205.90;13.57;;;;;;;;;;5068435;28;20410;-70
2021/05/19 03:59:38;;;;;;;203.25;13.32;;;;;;;;;;5072662;28;20474;-69
2021/05/19 04:02:04;;;;;;;128.30;12.02;;;;;;;;;;5074012;28;20044;-70
2021/05/19 04:04:31;;;;;;;144.63;14.23;;;;;;;;;;5072062;28;20024;-69
2021/05/19 04:06:57;;;;;;;158.05;11.68;;;;;;;;;;5072726;28;20068;-69
2021/05/19 04:09:23;;;;;;;242.07;16.27;;;;;;;;;;5073558;28;20021;-69
2021/05/19 04:11:49;;;;;;;86.10;11.48;;;;;;;;;;5072475;28;20074;-69
2021/05/19 04:14:15;;;;;;;62.40;9.43;;;;;;;;;;5073974;28;20047;-69
2021/05/19 04:16:41;;;;;;;113.20;11.60;;;;;;;;;;5061636;28;20075;-69
2021/05/19 04:19:08;;;;;;;100.60;10.85;;;;;;;;;;5052864;28;20091;-69
2021/05/19 04:21:34;;;;;;;91.15;11.75;;;;;;;;;;5072075;28;20480;-69
2021/05/19 04:24:00;;;;;;;60.60;10.43;;;;;;;;;;5087327;28;20016;-69
2021/05/19 04:26:26;;;;;;;85.32;11.60;;;;;;;;;;5093250;28;20020;-69
2021/05/19 04:28:52;;;;;;;133.57;15.10;;;;;;;;;;5093758;28;20020;-69
2021/05/19 04:31:18;;;;;;;135.35;18.15;;;;;;;;;;5092571;28;20434;-69
2021/05/19 04:33:44;;;;;;;198.55;18.42;;;;;;;;;;5081890;28;20095;-69
2021/05/19 04:36:10;;;;;;;125.22;13.27;;;;;;;;;;5073795;28;20048;-69
2021/05/19 04:38:36;;;;;;;45.28;9.80;;;;;;;;;;5072877;28;20111;-69
2021/05/19 04:41:03;;;;;;;29.55;8.23;;;;;;;;;;5072913;28;20816;-69
2021/05/19 04:43:29;;;;;;;37.67;7.88;;;;;;;;;;5073457;28;20024;-69
2021/05/19 04:45:55;;;;;;;30.48;7.60;;;;;;;;;;5072548;28;21670;-70
2021/05/19 04:48:21;;;;;;;346.75;314.83;;;;;;;;;;5070569;28;20162;-70
2021/05/19 04:50:47;;;;;;;42.17;20.63;;;;;;;;;;5071475;28;20020;-69
2021/05/19 04:53:13;;;;;;;29.50;8.02;;;;;;;;;;5072568;28;20103;-69
2021/05/19 04:55:39;;;;;;;47.90;9.02;;;;;;;;;;5066125;28;20044;-69
2021/05/19 04:58:06;;;;;;;48.53;6.75;;;;;;;;;;5063731;28;20056;-69
2021/05/19 05:00:33;;;;;;;66.72;9.10;;;;;;;;;;5070622;28;20017;-69
2021/05/19 05:02:59;;;;;;;86.95;7.40;;;;;;;;;;5070655;28;20441;-69
2021/05/19 05:05:25;;;;;;;73.30;7.68;;;;;;;;;;5070704;28;20055;-69
2021/05/19 05:07:51;;;;;;;54.83;7.97;;;;;;;;;;5072828;28;20067;-70
2021/05/19 05:10:17;;;;;;;29.83;7.80;;;;;;;;;;5072200;28;20020;-70
2021/05/19 05:12:45;;;;;;;55.63;11.55;;;;;;;;;;5072248;28;20024;-70
2021/05/19 05:15:11;;;;;;;54.45;10.18;;;;;;;;;;5070735;28;20131;-70
2021/05/19 05:17:38;;;;;;;101.57;9.52;;;;;;;;;;5071034;28;20025;-69
2021/05/19 05:20:05;;;;;;;42.80;8.95;;;;;;;;;;5072402;28;20045;-69
2021/05/19 05:22:31;;;;;;;63.15;10.32;;;;;;;;;;5064339;28;20028;-69
2021/05/19 05:24:57;;;;;;;52.50;11.85;;;;;;;;;;5068280;28;20052;-70
2021/05/19 05:27:23;;;;;;;53.03;11.35;;;;;;;;;;5056085;28;20032;-69
2021/05/19 05:29:49;;;;;;;32.47;9.13;;;;;;;;;;5060905;28;20464;-69
2021/05/19 05:32:15;;;;;;;30.30;9.95;;;;;;;;;;5063250;28;20047;-69
2021/05/19 05:34:41;;;;;;;47.92;10.65;;;;;;;;;;5073962;28;20047;-69
2021/05/19 05:37:08;;;;;;;32.90;9.63;;;;;;;;;;5061473;28;20466;-67
2021/05/19 05:39:34;;;;;;;20.52;8.68;;;;;;;;;;5061576;28;20025;-69
2021/05/19 05:42:00;;;;;;;18.73;6.90;;;;;;;;;;5066111;28;20588;-69
2021/05/19 05:44:26;;;;;;;12.40;7.30;;;;;;;;;;5065623;28;20028;-74
2021/05/19 05:46:52;;;;;;;12.38;6.93;;;;;;;;;;5055279;28;20025;-73
2021/05/19 05:49:18;;;;;;;12.80;7.57;;;;;;;;;;5070596;28;20024;-73
2021/05/19 05:51:44;;;;;;;12.73;8.00;;;;;;;;;;5067515;28;20489;-74
2021/05/19 05:54:11;;;;;;;17.30;7.82;;;;;;;;;;5067842;28;20647;-73
2021/05/19 05:56:40;;;;;;;12.57;7.22;;;;;;;;;;5063440;28;20107;-69
2021/05/19 05:59:06;;;;;;;;;;;;;;;;;;5066101;28;20036;-69
2021/05/19 06:01:32;;;;;;;11.65;6.18;;;;;;;;;;5064718;28;19917;-73
2021/05/19 06:03:58;;;;;;;9.38;6.70;;;;;;;;;;5049820;28;20074;-74
2021/05/19 06:06:25;;;;;;;9.20;6.00;;;;;;;;;;5059826;28;20048;-72
2021/05/19 06:08:51;;;;;;;8.55;5.90;;;;;;;;;;5060469;28;20352;-72
2021/05/19 06:11:17;;;;;;;8.25;5.70;;;;;;;;;;5064129;28;20021;-72
2021/05/19 06:13:43;;;;;;;8.65;6.22;;;;;;;;;;5064346;28;20028;-72
2021/05/19 06:16:09;;;;;;;9.07;6.07;;;;;;;;;;5059590;28;20035;-72
2021/05/19 06:18:35;;;;;;;8.48;5.95;;;;;;;;;;5058009;28;20047;-69
2021/05/19 06:21:02;;;;;;;36.50;24.50;;;;;;;;;;5061602;28;20022;-71
2021/05/19 06:23:28;;;;;;;8.95;6.00;;;;;;;;;;5064774;28;20031;-72
2021/05/19 06:25:54;;;;;;;6.82;5.68;;;;;;;;;;5059222;28;20032;-73
2021/05/19 06:28:20;;;;;;;13.75;9.20;;;;;;;;;;5061791;28;20040;-72
2021/05/19 06:30:46;;;;;;;7.63;6.22;;;;;;;;;;5054963;28;20029;-72
2021/05/19 06:33:12;;;;;;;8.60;6.20;;;;;;;;;;5058122;28;20481;-69
2021/05/19 06:35:38;;;;;;;8.25;5.60;;;;;;;;;;5062480;28;20040;-67
2021/05/19 06:38:04;;;;;;;6.78;5.05;;;;;;;;;;5059994;28;20063;-71
2021/05/19 06:40:30;;;;;;;7.05;5.50;;;;;;;;;;5063921;28;20037;-71
2021/05/19 06:42:57;;;;;;;5.57;4.35;;;;;;;;;;5063910;28;20461;-68
2021/05/19 06:45:24;;;;;;;6.07;4.38;;;;;;;;;;5061319;28;20055;-75
2021/05/19 06:47:50;;;;;;;6.18;4.43;;;;;;;;;;5059543;28;20070;-73
2021/05/19 06:50:16;;;;;;;7.00;4.40;;;;;;;;;;5056254;28;20040;-68
2021/05/19 06:52:42;;;;;;;6.07;4.22;;;;;;;;;;5062195;28;20017;-70
2021/05/19 06:55:10;;;;;;;5.43;3.95;;;;;;;;;;5060696;28;20043;-73
2021/05/19 06:57:36;;;;;;;6.20;3.90;;;;;;;;;;5062416;28;20035;-69
2021/05/19 07:00:06;;;;;;;6.88;3.60;;;;;;;;;;5065695;28;20100;-73
2021/05/19 07:02:32;;;;;;;6.28;4.88;;;;;;;;;;5055515;28;20055;-69
2021/05/19 07:04:58;;;;;;;8.52;5.38;;;;;;;;;;5059839;28;20028;-70
2021/05/19 07:07:24;;;;;;;7.50;5.25;;;;;;;;;;5078114;28;20048;-72
2021/05/19 07:09:51;;;;;;;5.90;5.00;;;;;;;;;;5059307;28;20419;-73
2021/05/19 07:12:17;;;;;;;27.45;11.93;;;;;;;;;;5048286;28;20034;-69
2021/05/19 07:14:53;;;;;;;5.72;4.68;;;;;;;;;;5063563;28;20040;-69
2021/05/19 07:17:19;;;;;;;23.55;7.45;;;;;;;;;;5065222;28;20024;-71
2021/05/19 07:19:46;;;;;;;32.67;8.20;;;;;;;;;;5054991;28;20037;-71
2021/05/19 07:22:12;;;;;;;14.23;5.00;;;;;;;;;;5056883;28;20029;-69
2021/05/19 07:24:38;;;;;;;8.93;4.38;;;;;;;;;;5062584;28;20039;-69
2021/05/19 07:27:05;;;;;;;5.85;3.78;;;;;;;;;;5076470;28;20493;-72
2021/05/19 07:29:32;;;;;;;4.32;3.30;;;;;;;;;;5059146;28;20039;-68
2021/05/19 07:31:59;;;;;;;5.22;3.08;;;;;;;;;;5061894;28;20037;-68
2021/05/19 07:34:25;;;;;;;6.05;4.10;;;;;;;;;;5054709;28;20515;-68
2021/05/19 07:36:51;;;;;;;4.32;3.53;;;;;;;;;;5065621;28;20444;-69
2021/05/19 07:39:18;;;;;;;5.72;4.93;;;;;;;;;;5060158;28;20023;-68
2021/05/19 07:41:44;;;;;;;6.78;4.22;;;;;;;;;;5065686;28;20127;-69
2021/05/19 07:44:10;;;;;;;6.88;3.40;;;;;;;;;;5066917;28;20024;-70
2021/05/19 07:46:37;;;;;;;7.25;4.30;;;;;;;;;;5079688;28;20044;-70
2021/05/19 07:49:03;;;;;;;5.50;3.10;;;;;;;;;;5064136;28;20855;-63
2021/05/19 07:51:29;;;;;;;4.90;3.55;;;;;;;;;;5056196;28;20036;-67
2021/05/19 07:53:56;;;;;;;11.15;4.55;;;;;;;;;;5065793;28;20094;-66
2021/05/19 07:56:52;;;;;;;8.80;2.80;;;;;;;;;;5060369;28;20048;-66
2021/05/19 07:59:11;;;;;;;12.50;3.20;;;;;;;;;;5067701;28;20036;-66
2021/05/19 08:04:09;;;;;;;3.75;3.05;;;;;;;;;;5065003;28;20028;-67
2021/05/19 08:06:35;;;;;;;4.75;2.70;;;;;;;;;;5069086;28;20051;-67
2021/05/19 08:09:01;;;;;;;4.18;2.17;;;;;;;;;;5065629;28;20032;-65
2021/05/19 08:11:27;;;;;;;4.57;2.92;;;;;;;;;;5063981;28;20059;-65
2021/05/19 08:13:55;;;;;;;5.88;2.90;;;;;;;;;;5065943;28;20020;-65
2021/05/19 08:16:21;;;;;;;6.63;2.55;;;;;;;;;;5065813;28;20051;-64
2021/05/19 08:18:47;;;;;;;6.40;2.67;;;;;;;;;;5064097;28;20061;-64
2021/05/19 08:21:14;;;;;;;6.65;2.83;;;;;;;;;;5067771;28;20047;-64
2021/05/19 08:23:40;;;;;;;6.15;2.50;;;;;;;;;;5059431;28;20028;-65
2021/05/19 08:26:06;;;;;;;24.75;3.55;;;;;;;;;;5062480;28;20040;-64
2021/05/19 08:28:33;;;;;;;4.75;2.45;;;;;;;;;;5062915;28;20703;-64
2021/05/19 08:30:59;;;;;;;7.70;3.30;;;;;;;;;;5065866;28;20025;-64
2021/05/19 08:33:25;;;;;;;6.53;2.60;;;;;;;;;;5064129;28;20064;-64
2021/05/19 08:35:51;;;;;;;6.78;3.30;;;;;;;;;;5064891;28;20024;-64
2021/05/19 08:38:17;;;;;;;17.48;4.13;;;;;;;;;;5062872;28;20362;-64
2021/05/19 08:40:43;;;;;;;6.07;2.70;;;;;;;;;;5055685;28;20036;-64
2021/05/19 08:43:12;;;;;;;5.47;2.60;;;;;;;;;;5061668;28;20504;-66
2021/05/19 08:45:39;;;;;;;4.32;2.20;;;;;;;;;;5059103;28;20158;-65
2021/05/19 08:48:05;;;;;;;9.57;2.65;;;;;;;;;;5059260;28;20036;-68
2021/05/19 08:50:32;;;;;;;7.22;2.40;;;;;;;;;;5067243;28;20021;-67
2021/05/19 08:52:58;;;;;;;4.90;2.42;;;;;;;;;;5064259;28;20028;-67
2021/05/19 08:55:24;;;;;;;7.28;2.47;;;;;;;;;;5055623;28;20044;-67
2021/05/19 08:57:50;;;;;;;5.32;2.50;;;;;;;;;;5064425;28;20024;-68
2021/05/19 09:00:16;;;;;;;14.57;2.92;;;;;;;;;;5064243;28;20145;-69
2021/05/19 09:02:43;;;;;;;17.17;3.75;;;;;;;;;;5063551;28;20091;-68
2021/05/19 09:05:10;;;;;;;9.80;2.80;;;;;;;;;;5062984;28;20024;-67
2021/05/19 09:07:37;;;;;;;17.85;9.13;;;;;;;;;;5060178;28;20163;-67
2021/05/19 09:10:29;;;;;;;7.53;3.00;;;;;;;;;;5065073;28;20070;-68
2021/05/19 09:12:55;;;;;;;8.30;2.78;;;;;;;;;;5062376;28;20040;-64
2021/05/19 09:15:22;;;;;;;5.50;2.67;;;;;;;;;;5067756;28;20082;-64
2021/05/19 09:17:54;;;;;;;7.15;3.20;;;;;;;;;;5062247;28;20031;-64
2021/05/19 09:20:20;;;;;;;8.23;2.97;;;;;;;;;;5063038;28;20123;-67
2021/05/19 09:22:46;;;;;;;11.88;2.78;;;;;;;;;;5062820;28;20047;-67
2021/05/19 09:25:22;;;;;;;8.82;2.80;;;;;;;;;;5062617;28;20044;-68
2021/05/19 09:27:49;;;;;;;8.95;3.42;;;;;;;;;;5062352;28;20070;-68
2021/05/19 09:30:16;;;;;;;7.70;3.00;;;;;;;;;;5060780;28;20033;-69
2021/05/19 09:32:43;;;;;;;7.05;3.03;;;;;;;;;;5068298;28;20059;-69
2021/05/19 09:35:10;;;;;;;7.72;3.35;;;;;;;;;;5066480;28;20033;-69
2021/05/19 09:37:36;;;;;;;16.52;6.90;;;;;;;;;;5066820;28;20036;-68
2021/05/19 09:40:09;;;;;;;8.30;4.18;;;;;;;;;;5067002;28;20039;-67
2021/05/19 09:42:37;;;;;;;14.98;4.50;;;;;;;;;;5066820;28;20056;-66
2021/05/19 09:45:14;;;;;;;29.92;8.43;;;;;;;;;;5060991;28;20111;-67
2021/05/19 09:47:44;;;;;;;15.33;7.20;;;;;;;;;;5068546;28;20035;-67
2021/05/19 09:50:11;;;;;;;27.92;10.05;;;;;;;;;;5063568;28;20020;-69
2021/05/19 09:52:37;;;;;;;17.80;7.85;;;;;;;;;;5067621;28;20056;-70
2021/05/19 09:55:07;;;;;;;18.33;7.00;;;;;;;;;;5063874;28;21035;-67
2021/05/19 09:57:43;;;;;;;38.95;10.68;;;;;;;;;;5066987;28;20112;-67
2021/05/19 10:00:11;;;;;;;19.90;8.05;;;;;;;;;;5058958;28;20398;-66
2021/05/19 10:02:37;;;;;;;30.35;7.30;;;;;;;;;;5066345;28;20045;-67
2021/05/19 10:05:15;;;;;;;13.75;5.30;;;;;;;;;;5070533;28;20032;-67
2021/05/19 10:07:41;;;;;;;26.52;5.03;;;;;;;;;;5068484;28;20079;-67
2021/05/19 10:10:07;;;;;;;33.83;8.10;;;;;;;;;;5070664;28;20032;-67
2021/05/19 10:12:34;;;;;;;13.77;4.65;;;;;;;;;;5063359;28;20081;-68
2021/05/19 10:15:03;;;;;;;21.80;4.25;;;;;;;;;;5058746;28;20040;-66
2021/05/19 10:17:29;;;;;;;19.60;4.75;;;;;;;;;;5062498;28;20036;-68
2021/05/19 10:19:55;;;;;;;10.05;3.55;;;;;;;;;;5058607;28;20036;-67
2021/05/19 10:22:22;;;;;;;17.40;4.13;;;;;;;;;;5067130;28;20501;-67
2021/05/19 10:25:02;;;;;;;13.57;3.72;;;;;;;;;;5065693;28;20028;-68
2021/05/19 10:27:46;;;;;;;43.28;6.20;;;;;;;;;;5063694;28;20474;-67
2021/05/19 10:30:12;;;;;;;6.35;3.63;;;;;;;;;;5065175;28;20100;-67
2021/05/19 10:32:38;;;;;;;23.92;5.32;;;;;;;;;;5066376;28;20040;-67
2021/05/19 10:35:06;;;;;;;7.43;4.00;;;;;;;;;;5064271;28;20024;-67
2021/05/19 10:37:34;;;;;;;10.35;4.28;;;;;;;;;;5067503;28;20039;-67
2021/05/19 10:40:00;;;;;;;;;;;;;;;;;;5066541;28;20042;-67
2021/05/19 10:42:33;;;;;;;111.55;12.30;;;;;;;;;;5064446;28;19916;-67
2021/05/19 10:45:08;;;;;;;11.98;3.15;;;;;;;;;;5030335;28;20490;-63
2021/05/19 10:47:34;;;;;;;4.40;3.00;;;;;;;;;;5058040;28;20051;-64
2021/05/19 10:57:50;;;;;;;11.13;3.60;;;;;;;;;;5058558;28;19970;-64
2021/05/19 11:00:23;;;;;;;16.05;3.20;;;;;;;;;;5062510;28;20355;-63
2021/05/19 11:02:57;;;;;;;9.30;2.83;;;;;;;;;;5062810;28;20044;-63
2021/05/19 11:05:34;;;;;;;11.43;3.80;;;;;;;;;;5058458;28;20025;-63
2021/05/19 11:08:12;;;;;;;15.02;3.72;;;;;;;;;;5061003;28;20051;-63
2021/05/19 11:10:48;;;;;;;10.25;2.63;;;;;;;;;;5068173;28;20139;-63
2021/05/19 11:13:15;;;;;;;16.00;3.53;;;;;;;;;;5066866;28;20070;-63
2021/05/19 11:18:21;;;;;;;7.30;3.00;;;;;;;;;;5069545;28;20121;-67
2021/05/19 11:20:48;;;;;;;7.85;3.75;;;;;;;;;;5066958;28;20036;-67
2021/05/19 11:23:14;;;;;;;3.75;3.03;;;;;;;;;;5064877;28;20201;-67
2021/05/19 11:25:41;;;;;;;7.95;2.85;;;;;;;;;;5058914;28;20025;-67
2021/05/19 11:28:07;;;;;;;2.83;2.25;;;;;;;;;;5068909;28;20060;-67
2021/05/19 11:30:33;;;;;;;12.32;2.65;;;;;;;;;;5066331;28;20020;-68
2021/05/19 11:33:21;;;;;;;6.85;2.22;;;;;;;;;;5068711;28;20051;-68
2021/05/19 11:35:48;;;;;;;3.25;1.90;;;;;;;;;;5068923;28;20027;-68
2021/05/19 11:38:15;;;;;;;7.55;2.20;;;;;;;;;;5070316;28;20024;-68
2021/05/19 11:40:51;;;;;;;11.20;2.50;;;;;;;;;;5068473;28;20044;-69
2021/05/19 11:43:17;;;;;;;48.58;5.68;;;;;;;;;;5065496;28;20071;-64
2021/05/19 11:45:52;;;;;;;3.80;2.20;;;;;;;;;;5068653;28;20033;-65
2021/05/19 11:48:23;;;;;;;6.95;2.08;;;;;;;;;;5067743;28;20020;-63
2021/05/19 11:50:49;;;;;;;8.75;2.80;;;;;;;;;;5068561;28;20017;-63
2021/05/19 11:53:16;;;;;;;8.93;2.40;;;;;;;;;;5066858;28;20024;-64
2021/05/19 11:55:50;;;;;;;14.95;2.15;;;;;;;;;;5069474;28;20025;-66
2021/05/19 11:58:29;;;;;;;8.43;2.50;;;;;;;;;;5065080;28;20066;-65
2021/05/19 12:00:57;;;;;;;12.52;2.42;;;;;;;;;;5068057;28;20032;-64
2021/05/19 12:03:24;;;;;;;11.73;5.15;;;;;;;;;;5070833;28;20045;-63
2021/05/19 12:05:51;;;;;;;7.13;2.90;;;;;;;;;;5072099;28;20036;-63
2021/05/19 12:08:18;;;;;;;8.38;3.35;;;;;;;;;;5068353;28;20103;-64
2021/05/19 12:10:45;;;;;;;7.07;2.35;;;;;;;;;;5065784;28;20166;-64
2021/05/19 12:13:12;;;;;;;3.30;1.73;;;;;;;;;;5065574;28;20020;-68
2021/05/19 12:15:38;;;;;;;4.93;2.42;;;;;;;;;;5066201;28;20043;-68
2021/05/19 12:18:05;;;;;;;3.22;2.05;;;;;;;;;;5068932;28;20025;-68
2021/05/19 12:20:31;;;;;;;2.60;2.40;;;;;;;;;;5059590;28;20370;-67
2021/05/19 12:22:59;;;;;;;4.22;2.25;;;;;;;;;;5061580;28;20040;-68
2021/05/19 12:25:26;;;;;;;2.88;1.90;;;;;;;;;;5062814;28;20054;-68
2021/05/19 12:27:52;;;;;;;5.70;2.10;;;;;;;;;;5088388;28;20028;-64
2021/05/19 12:30:19;;;;;;;4.63;2.53;;;;;;;;;;5065875;28;20025;-64
2021/05/19 12:32:55;;;;;;;59.72;6.30;;;;;;;;;;5065895;28;20033;-63
2021/05/19 12:35:24;;;;;;;5.13;2.50;;;;;;;;;;5065292;28;20043;-68
2021/05/19 12:37:59;;;;;;;18.55;3.20;;;;;;;;;;5065896;28;20068;-68
2021/05/19 12:40:25;;;;;;;8.02;2.80;;;;;;;;;;5065258;28;20032;-68
2021/05/19 12:43:00;;;;;;;26.05;3.63;;;;;;;;;;5067047;28;20033;-68
2021/05/19 12:45:26;;;;;;;24.40;3.65;;;;;;;;;;5060088;28;20070;-64
2021/05/19 12:48:05;;;;;;;7.93;2.65;;;;;;;;;;5059388;28;20048;-64
2021/05/19 12:50:44;;;;;;;10.95;2.85;;;;;;;;;;5061705;28;20415;-64
2021/05/19 12:53:27;;;;;;;97.15;8.93;;;;;;;;;;5061415;28;20025;-64
2021/05/19 12:56:20;;;;;;;18.60;3.70;;;;;;;;;;5066882;28;20031;-64
2021/05/19 12:58:52;;;;;;;11.23;2.80;;;;;;;;;;5059995;28;20049;-63
2021/05/19 13:01:18;;;;;;;7.95;3.30;;;;;;;;;;5061757;28;20052;-63
2021/05/19 13:03:45;;;;;;;4.15;2.50;;;;;;;;;;5063720;28;20036;-68
2021/05/19 13:06:11;;;;;;;18.48;2.90;;;;;;;;;;5061904;28;20032;-67
2021/05/19 13:08:37;;;;;;;4.95;2.50;;;;;;;;;;5065994;28;20037;-67
2021/05/19 13:11:05;;;;;;;18.98;3.70;;;;;;;;;;5061546;28;20028;-66
2021/05/19 13:13:44;;;;;;;4.55;2.55;;;;;;;;;;5065902;28;20036;-67
2021/05/19 13:16:17;;;;;;;7.43;2.90;;;;;;;;;;5058961;28;20067;-66
2021/05/19 13:19:10;;;;;;;11.63;4.22;;;;;;;;;;5062699;28;20529;-64
2021/05/19 13:24:09;;;;;;;10.02;3.08;;;;;;;;;;5065010;28;20122;-65
2021/05/19 13:26:36;;;;;;;17.48;3.58;;;;;;;;;;5063776;28;20032;-64
2021/05/19 13:29:03;;;;;;;13.98;3.97;;;;;;;;;;5065983;28;20035;-63
2021/05/19 13:31:32;;;;;;;9.63;3.67;;;;;;;;;;5064944;28;20457;-63
2021/05/19 13:36:43;;;;;;;8.80;4.10;;;;;;;;;;5059653;28;20043;-69
2021/05/19 13:39:22;;;;;;;13.80;3.58;;;;;;;;;;5066865;28;20029;-69
2021/05/19 13:41:50;;;;;;;9.88;3.95;;;;;;;;;;5068785;28;20036;-68
2021/05/19 13:44:16;;;;;;;27.73;8.25;;;;;;;;;;5064564;28;20104;-69
2021/05/19 13:46:42;;;;;;;11.50;5.45;;;;;;;;;;5062432;28;20580;-69
2021/05/19 13:49:16;;;;;;;29.50;5.30;;;;;;;;;;5055732;28;20032;-68
2021/05/19 13:51:53;;;;;;;8.40;3.90;;;;;;;;;;5057043;28;20052;-72
2021/05/19 13:54:19;;;;;;;8.05;3.60;;;;;;;;;;5059949;28;20021;-74
2021/05/19 13:56:45;;;;;;;8.05;4.30;;;;;;;;;;5015443;28;20964;-73
2021/05/19 13:59:31;;;;;;;14.48;5.75;;;;;;;;;;5057642;28;20032;-74
2021/05/19 14:01:57;;;;;;;14.85;4.20;;;;;;;;;;5062275;28;20386;-75
2021/05/19 14:04:23;;;;;;;16.85;5.22;;;;;;;;;;5064369;28;20025;-75
2021/05/19 14:06:49;;;;;;;13.57;4.07;;;;;;;;;;5063656;28;20385;-74
2021/05/19 14:09:17;;;;;;;15.82;5.20;;;;;;;;;;5064759;28;20518;-74
2021/05/19 14:20:16;;;;;;;22.05;5.97;;;;;;;;;;5046648;28;20074;-72
2021/05/19 14:28:11;;;;;;;9.65;4.43;;;;;;;;;;5071068;28;20873;-73
2021/05/19 14:30:37;;;;;;;34.50;4.30;;;;;;;;;;5071949;28;20037;-73
2021/05/19 14:33:03;;;;;;;55.00;6.57;;;;;;;;;;5076604;28;20032;-72
2021/05/19 14:38:34;;;;;;;27.50;5.53;;;;;;;;;;5070861;28;20071;-71
2021/05/19 14:46:33;;;;;;;24.02;7.95;;;;;;;;;;5073542;28;20046;-73
2021/05/19 14:59:46;;;;;;;17.55;4.60;;;;;;;;;;5046765;28;20402;-72
2021/05/19 15:02:13;;;;;;;3.83;3.53;;;;;;;;;;5031905;28;20025;-72
2021/05/19 15:04:39;;;;;;;8.50;4.03;;;;;;;;;;5038223;28;20029;-72
2021/05/19 15:07:05;;;;;;;15.30;3.92;;;;;;;;;;5039103;28;20571;-72
2021/05/19 15:09:31;;;;;;;10.18;3.75;;;;;;;;;;5044786;28;20053;-72
2021/05/19 15:11:57;;;;;;;125.60;15.25;;;;;;;;;;5034304;28;20025;-69
2021/05/19 15:14:23;;;;;;;29.52;9.82;;;;;;;;;;5040061;28;20027;-70
2021/05/19 15:16:49;;;;;;;18.95;7.53;;;;;;;;;;5048650;28;20029;-69
2021/05/19 15:19:15;;;;;;;18.33;8.77;;;;;;;;;;5037567;28;20051;-69
2021/05/19 15:21:42;;;;;;;4.95;3.78;;;;;;;;;;5045177;28;20494;-68
2021/05/19 15:24:08;;;;;;;11.05;4.70;;;;;;;;;;5036457;28;20048;-69
2021/05/19 15:26:35;;;;;;;7.20;4.90;;;;;;;;;;5043390;28;20057;-69